sensor_id;sensor_type;location;lat;lon;timestamp;temperature;humidity
19152;DHT22;9708;53.114;9.388;2023-05-10T00:01:14;15.60;99.90
19152;DHT22;9708;53.114;9.388;2023-05-10T00:03:40;15.50;99.90
19152;DHT22;9708;53.114;9.388;2023-05-10T00:06:07;15.60;99.90
19152;DHT22;9708;53.114;9.388;2023-05-10T00:08:34;15.60;99.90
19152;DHT22;9708;53.114;9.388;2023-05-10T00:11:00;15.60;99.90
19152;DHT22;9708;53.114;9.388;2023-05-10T00:13:29;15.60;99.90
19152;DHT22;9708;53.114;9.388;2023-05-10T00:15:55;15.50;99.90
19152;DHT22;9708;53.114;9.388;2023-05-10T00:18:22;15.50;99.90
19152;DHT22;9708;53.114;9.388;2023-05-10T00:20:49;15.50;99.90
19152;DHT22;9708;53.114;9.388;2023-05-10T00:23:16;15.50;99.90
19152;DHT22;9708;53.114;9.388;2023-05-10T00:25:43;15.40;99.90
19152;DHT22;9708;53.114;9.388;2023-05-10T00:28:09;15.30;99.90
19152;DHT22;9708;53.114;9.388;2023-05-10T00:30:37;15.30;99.90
19152;DHT22;9708;53.114;9.388;2023-05-10T00:33:04;15.30;99.90
19152;DHT22;9708;53.114;9.388;2023-05-10T00:35:31;15.20;99.90
19152;DHT22;9708;53.114;9.388;2023-05-10T00:37:58;15.40;99.90
19152;DHT22;9708;53.114;9.388;2023-05-10T00:40:24;15.30;99.90
19152;DHT22;9708;53.114;9.388;2023-05-10T00:42:51;15.30;99.90
19152;DHT22;9708;53.114;9.388;2023-05-10T00:45:18;15.10;99.90
19152;DHT22;9708;53.114;9.388;2023-05-10T00:47:46;15.00;99.90
19152;DHT22;9708;53.114;9.388;2023-05-10T00:50:13;15.00;99.90
19152;DHT22;9708;53.114;9.388;2023-05-10T00:52:41;15.00;99.90
19152;DHT22;9708;53.114;9.388;2023-05-10T00:55:09;15.00;99.90
19152;DHT22;9708;53.114;9.388;2023-05-10T00:57:37;15.00;99.90
19152;DHT22;9708;53.114;9.388;2023-05-10T01:00:05;15.00;99.90
19152;DHT22;9708;53.114;9.388;2023-05-10T01:02:33;14.90;99.90
19152;DHT22;9708;53.114;9.388;2023-05-10T01:05:02;14.90;99.90
19152;DHT22;9708;53.114;9.388;2023-05-10T01:07:30;14.80;99.90
19152;DHT22;9708;53.114;9.388;2023-05-10T01:09:57;14.80;99.90
19152;DHT22;9708;53.114;9.388;2023-05-10T01:12:24;14.70;99.90
19152;DHT22;9708;53.114;9.388;2023-05-10T01:14:51;14.80;99.90
19152;DHT22;9708;53.114;9.388;2023-05-10T01:17:18;14.70;99.90
19152;DHT22;9708;53.114;9.388;2023-05-10T01:19:46;14.70;99.90
19152;DHT22;9708;53.114;9.388;2023-05-10T01:22:30;14.60;99.90
19152;DHT22;9708;53.114;9.388;2023-05-10T01:25:22;14.70;99.90
19152;DHT22;9708;53.114;9.388;2023-05-10T01:28:33;14.70;99.90
19152;DHT22;9708;53.114;9.388;2023-05-10T01:31:13;14.70;99.90
19152;DHT22;9708;53.114;9.388;2023-05-10T01:33:48;14.80;99.90
19152;DHT22;9708;53.114;9.388;2023-05-10T01:36:23;14.60;99.90
19152;DHT22;9708;53.114;9.388;2023-05-10T01:38:59;14.50;99.90
19152;DHT22;9708;53.114;9.388;2023-05-10T01:41:33;14.50;99.90
19152;DHT22;9708;53.114;9.388;2023-05-10T01:44:09;14.40;99.90
19152;DHT22;9708;53.114;9.388;2023-05-10T01:46:39;14.40;99.90
19152;DHT22;9708;53.114;9.388;2023-05-10T01:49:10;14.40;99.90
19152;DHT22;9708;53.114;9.388;2023-05-10T01:51:41;14.20;99.90
19152;DHT22;9708;53.114;9.388;2023-05-10T01:54:09;14.20;99.90
19152;DHT22;9708;53.114;9.388;2023-05-10T01:56:37;14.20;99.90
19152;DHT22;9708;53.114;9.388;2023-05-10T01:59:08;14.10;99.90
19152;DHT22;9708;53.114;9.388;2023-05-10T02:01:36;14.00;99.90
19152;DHT22;9708;53.114;9.388;2023-05-10T02:04:05;14.00;99.90
19152;DHT22;9708;53.114;9.388;2023-05-10T02:06:34;14.00;99.90
19152;DHT22;9708;53.114;9.388;2023-05-10T02:09:02;14.00;99.90
19152;DHT22;9708;53.114;9.388;2023-05-10T02:11:29;14.00;99.90
19152;DHT22;9708;53.114;9.388;2023-05-10T02:13:58;14.00;99.90
19152;DHT22;9708;53.114;9.388;2023-05-10T02:16:26;14.10;99.90
19152;DHT22;9708;53.114;9.388;2023-05-10T02:18:57;14.00;99.90
19152;DHT22;9708;53.114;9.388;2023-05-10T02:21:26;14.00;99.90
19152;DHT22;9708;53.114;9.388;2023-05-10T02:23:55;14.10;99.90
19152;DHT22;9708;53.114;9.388;2023-05-10T02:26:23;14.10;99.90
19152;DHT22;9708;53.114;9.388;2023-05-10T02:28:52;14.10;99.90
19152;DHT22;9708;53.114;9.388;2023-05-10T02:31:20;14.20;99.90
19152;DHT22;9708;53.114;9.388;2023-05-10T02:33:48;14.00;99.90
19152;DHT22;9708;53.114;9.388;2023-05-10T02:36:16;13.90;99.90
19152;DHT22;9708;53.114;9.388;2023-05-10T02:38:44;13.90;99.90
19152;DHT22;9708;53.114;9.388;2023-05-10T02:41:14;13.80;99.90
19152;DHT22;9708;53.114;9.388;2023-05-10T02:43:42;13.80;99.90
19152;DHT22;9708;53.114;9.388;2023-05-10T02:46:09;14.00;99.90
19152;DHT22;9708;53.114;9.388;2023-05-10T02:48:36;13.80;99.90
19152;DHT22;9708;53.114;9.388;2023-05-10T02:51:05;13.90;99.90
19152;DHT22;9708;53.114;9.388;2023-05-10T02:53:36;13.80;99.90
19152;DHT22;9708;53.114;9.388;2023-05-10T02:56:10;13.80;99.90
19152;DHT22;9708;53.114;9.388;2023-05-10T02:58:40;13.80;99.90
19152;DHT22;9708;53.114;9.388;2023-05-10T03:01:06;13.80;99.90
19152;DHT22;9708;53.114;9.388;2023-05-10T03:03:34;13.80;99.90
19152;DHT22;9708;53.114;9.388;2023-05-10T03:06:00;13.80;99.90
19152;DHT22;9708;53.114;9.388;2023-05-10T03:08:28;13.80;99.90
19152;DHT22;9708;53.114;9.388;2023-05-10T03:11:02;13.70;99.90
19152;DHT22;9708;53.114;9.388;2023-05-10T03:13:42;13.70;99.90
19152;DHT22;9708;53.114;9.388;2023-05-10T03:16:15;13.70;99.90
19152;DHT22;9708;53.114;9.388;2023-05-10T03:18:44;13.80;99.90
19152;DHT22;9708;53.114;9.388;2023-05-10T03:21:15;13.60;99.90
19152;DHT22;9708;53.114;9.388;2023-05-10T03:23:47;13.50;99.90
19152;DHT22;9708;53.114;9.388;2023-05-10T03:26:23;13.50;99.90
19152;DHT22;9708;53.114;9.388;2023-05-10T03:28:52;13.50;99.90
19152;DHT22;9708;53.114;9.388;2023-05-10T03:31:19;13.50;99.90
19152;DHT22;9708;53.114;9.388;2023-05-10T03:33:47;13.50;99.90
19152;DHT22;9708;53.114;9.388;2023-05-10T03:36:14;13.50;99.90
19152;DHT22;9708;53.114;9.388;2023-05-10T03:38:41;13.50;99.90
19152;DHT22;9708;53.114;9.388;2023-05-10T03:41:08;13.50;99.90
19152;DHT22;9708;53.114;9.388;2023-05-10T03:43:35;13.60;99.90
19152;DHT22;9708;53.114;9.388;2023-05-10T03:46:04;13.70;99.90
19152;DHT22;9708;53.114;9.388;2023-05-10T03:48:32;13.60;99.90
19152;DHT22;9708;53.114;9.388;2023-05-10T03:50:59;13.60;99.90
19152;DHT22;9708;53.114;9.388;2023-05-10T03:53:25;13.50;99.90
19152;DHT22;9708;53.114;9.388;2023-05-10T03:55:52;13.50;99.90
19152;DHT22;9708;53.114;9.388;2023-05-10T03:58:19;13.50;99.90
19152;DHT22;9708;53.114;9.388;2023-05-10T04:00:45;13.50;99.90
19152;DHT22;9708;53.114;9.388;2023-05-10T04:03:14;13.60;99.90
19152;DHT22;9708;53.114;9.388;2023-05-10T04:05:41;13.60;99.90
19152;DHT22;9708;53.114;9.388;2023-05-10T04:08:07;13.60;99.90
19152;DHT22;9708;53.114;9.388;2023-05-10T04:10:34;13.70;99.90
19152;DHT22;9708;53.114;9.388;2023-05-10T04:13:01;13.70;99.90
19152;DHT22;9708;53.114;9.388;2023-05-10T04:15:28;13.90;99.90
19152;DHT22;9708;53.114;9.388;2023-05-10T04:17:55;13.70;99.90
19152;DHT22;9708;53.114;9.388;2023-05-10T04:20:23;13.80;99.90
19152;DHT22;9708;53.114;9.388;2023-05-10T04:22:50;13.70;99.90
19152;DHT22;9708;53.114;9.388;2023-05-10T04:25:17;13.70;99.90
19152;DHT22;9708;53.114;9.388;2023-05-10T04:27:44;13.70;99.90
19152;DHT22;9708;53.114;9.388;2023-05-10T04:30:11;13.70;99.90
19152;DHT22;9708;53.114;9.388;2023-05-10T04:32:38;13.80;99.90
19152;DHT22;9708;53.114;9.388;2023-05-10T04:35:05;13.80;99.90
19152;DHT22;9708;53.114;9.388;2023-05-10T04:37:33;13.80;99.90
19152;DHT22;9708;53.114;9.388;2023-05-10T04:40:00;13.80;99.90
19152;DHT22;9708;53.114;9.388;2023-05-10T04:42:28;13.70;99.90
19152;DHT22;9708;53.114;9.388;2023-05-10T04:44:55;13.70;99.90
19152;DHT22;9708;53.114;9.388;2023-05-10T04:47:21;13.70;99.90
19152;DHT22;9708;53.114;9.388;2023-05-10T04:49:48;13.90;99.90
19152;DHT22;9708;53.114;9.388;2023-05-10T04:52:15;13.80;99.90
19152;DHT22;9708;53.114;9.388;2023-05-10T04:54:44;13.90;99.90
19152;DHT22;9708;53.114;9.388;2023-05-10T04:57:11;13.80;99.90
19152;DHT22;9708;53.114;9.388;2023-05-10T04:59:38;13.70;99.90
19152;DHT22;9708;53.114;9.388;2023-05-10T05:02:05;13.80;99.90
19152;DHT22;9708;53.114;9.388;2023-05-10T05:04:32;13.90;99.90
19152;DHT22;9708;53.114;9.388;2023-05-10T05:06:58;14.00;99.90
19152;DHT22;9708;53.114;9.388;2023-05-10T05:09:25;14.20;99.90
19152;DHT22;9708;53.114;9.388;2023-05-10T05:11:53;14.20;99.90
19152;DHT22;9708;53.114;9.388;2023-05-10T05:14:20;14.30;99.90
19152;DHT22;9708;53.114;9.388;2023-05-10T05:16:47;14.30;99.90
19152;DHT22;9708;53.114;9.388;2023-05-10T05:19:13;14.00;99.90
19152;DHT22;9708;53.114;9.388;2023-05-10T05:21:40;13.90;99.90
19152;DHT22;9708;53.114;9.388;2023-05-10T05:24:07;13.90;99.90
19152;DHT22;9708;53.114;9.388;2023-05-10T05:26:35;13.80;99.90
19152;DHT22;9708;53.114;9.388;2023-05-10T05:29:03;13.90;99.90
19152;DHT22;9708;53.114;9.388;2023-05-10T05:31:30;13.80;99.90
19152;DHT22;9708;53.114;9.388;2023-05-10T05:33:57;13.80;99.90
19152;DHT22;9708;53.114;9.388;2023-05-10T05:36:24;13.90;99.90
19152;DHT22;9708;53.114;9.388;2023-05-10T05:38:51;13.70;99.90
19152;DHT22;9708;53.114;9.388;2023-05-10T05:41:17;13.60;99.90
19152;DHT22;9708;53.114;9.388;2023-05-10T05:43:44;13.40;99.90
19152;DHT22;9708;53.114;9.388;2023-05-10T05:46:12;13.70;99.90
19152;DHT22;9708;53.114;9.388;2023-05-10T05:48:39;13.40;99.90
19152;DHT22;9708;53.114;9.388;2023-05-10T05:51:06;13.40;99.90
19152;DHT22;9708;53.114;9.388;2023-05-10T05:53:33;13.30;99.90
19152;DHT22;9708;53.114;9.388;2023-05-10T05:56:00;13.30;99.90
19152;DHT22;9708;53.114;9.388;2023-05-10T05:58:26;13.20;99.90
19152;DHT22;9708;53.114;9.388;2023-05-10T06:00:53;13.10;99.90
19152;DHT22;9708;53.114;9.388;2023-05-10T06:03:21;13.10;99.90
19152;DHT22;9708;53.114;9.388;2023-05-10T06:05:48;13.10;99.90
19152;DHT22;9708;53.114;9.388;2023-05-10T06:08:15;13.00;99.90
19152;DHT22;9708;53.114;9.388;2023-05-10T06:10:42;13.00;99.90
19152;DHT22;9708;53.114;9.388;2023-05-10T06:13:09;13.00;99.90
19152;DHT22;9708;53.114;9.388;2023-05-10T06:15:36;12.90;99.90
19152;DHT22;9708;53.114;9.388;2023-05-10T06:18:03;12.80;99.90
19152;DHT22;9708;53.114;9.388;2023-05-10T06:20:31;12.80;99.90
19152;DHT22;9708;53.114;9.388;2023-05-10T06:22:58;12.70;99.90
19152;DHT22;9708;53.114;9.388;2023-05-10T06:25:25;12.60;99.90
19152;DHT22;9708;53.114;9.388;2023-05-10T06:27:52;12.70;99.90
19152;DHT22;9708;53.114;9.388;2023-05-10T06:30:23;12.60;99.90
19152;DHT22;9708;53.114;9.388;2023-05-10T06:32:52;12.50;99.90
19152;DHT22;9708;53.114;9.388;2023-05-10T06:35:21;12.70;99.90
19152;DHT22;9708;53.114;9.388;2023-05-10T06:37:50;12.60;99.90
19152;DHT22;9708;53.114;9.388;2023-05-10T06:40:17;12.50;99.90
19152;DHT22;9708;53.114;9.388;2023-05-10T06:42:44;12.40;99.90
19152;DHT22;9708;53.114;9.388;2023-05-10T06:45:12;12.40;99.90
19152;DHT22;9708;53.114;9.388;2023-05-10T06:47:38;12.30;99.90
19152;DHT22;9708;53.114;9.388;2023-05-10T06:50:06;12.60;99.90
19152;DHT22;9708;53.114;9.388;2023-05-10T06:52:33;12.50;99.90
19152;DHT22;9708;53.114;9.388;2023-05-10T06:55:01;12.40;99.90
19152;DHT22;9708;53.114;9.388;2023-05-10T06:57:28;12.50;99.90
19152;DHT22;9708;53.114;9.388;2023-05-10T06:59:55;12.40;99.90
19152;DHT22;9708;53.114;9.388;2023-05-10T07:02:22;12.30;99.90
19152;DHT22;9708;53.114;9.388;2023-05-10T07:04:49;12.30;99.90
19152;DHT22;9708;53.114;9.388;2023-05-10T07:07:17;12.30;99.90
19152;DHT22;9708;53.114;9.388;2023-05-10T07:09:44;12.20;99.90
19152;DHT22;9708;53.114;9.388;2023-05-10T07:12:12;12.20;99.90
19152;DHT22;9708;53.114;9.388;2023-05-10T07:14:39;12.20;99.90
19152;DHT22;9708;53.114;9.388;2023-05-10T07:17:06;12.00;99.90
19152;DHT22;9708;53.114;9.388;2023-05-10T07:19:33;12.10;99.90
19152;DHT22;9708;53.114;9.388;2023-05-10T07:22:00;12.00;99.90
19152;DHT22;9708;53.114;9.388;2023-05-10T07:24:27;11.90;99.90
19152;DHT22;9708;53.114;9.388;2023-05-10T07:26:53;12.00;99.90
19152;DHT22;9708;53.114;9.388;2023-05-10T07:29:22;11.90;99.90
19152;DHT22;9708;53.114;9.388;2023-05-10T07:31:48;12.00;99.90
19152;DHT22;9708;53.114;9.388;2023-05-10T07:34:15;12.00;99.90
19152;DHT22;9708;53.114;9.388;2023-05-10T07:36:42;12.10;99.90
19152;DHT22;9708;53.114;9.388;2023-05-10T07:39:09;12.10;99.90
19152;DHT22;9708;53.114;9.388;2023-05-10T07:41:35;12.00;99.90
19152;DHT22;9708;53.114;9.388;2023-05-10T07:44:04;12.00;99.90
19152;DHT22;9708;53.114;9.388;2023-05-10T07:46:32;12.00;99.90
19152;DHT22;9708;53.114;9.388;2023-05-10T07:48:59;12.00;99.90
19152;DHT22;9708;53.114;9.388;2023-05-10T07:51:25;12.10;99.90
19152;DHT22;9708;53.114;9.388;2023-05-10T07:53:53;12.10;99.90
19152;DHT22;9708;53.114;9.388;2023-05-10T07:56:22;12.10;99.90
19152;DHT22;9708;53.114;9.388;2023-05-10T07:58:50;12.10;99.90
19152;DHT22;9708;53.114;9.388;2023-05-10T08:01:17;12.20;99.90
19152;DHT22;9708;53.114;9.388;2023-05-10T08:03:45;12.20;99.90
19152;DHT22;9708;53.114;9.388;2023-05-10T08:06:13;12.10;99.90
19152;DHT22;9708;53.114;9.388;2023-05-10T08:08:40;12.20;99.90
19152;DHT22;9708;53.114;9.388;2023-05-10T08:11:07;12.10;99.90
19152;DHT22;9708;53.114;9.388;2023-05-10T08:13:34;12.00;99.90
19152;DHT22;9708;53.114;9.388;2023-05-10T08:16:01;12.20;99.90
19152;DHT22;9708;53.114;9.388;2023-05-10T08:18:27;12.00;99.90
19152;DHT22;9708;53.114;9.388;2023-05-10T08:20:55;12.00;99.90
19152;DHT22;9708;53.114;9.388;2023-05-10T08:23:22;12.20;99.90
19152;DHT22;9708;53.114;9.388;2023-05-10T08:25:49;12.10;99.90
19152;DHT22;9708;53.114;9.388;2023-05-10T08:28:16;12.00;99.90
19152;DHT22;9708;53.114;9.388;2023-05-10T08:30:42;11.90;99.90
19152;DHT22;9708;53.114;9.388;2023-05-10T08:33:09;12.00;99.90
19152;DHT22;9708;53.114;9.388;2023-05-10T08:35:36;12.10;99.90
19152;DHT22;9708;53.114;9.388;2023-05-10T08:38:04;12.10;99.90
19152;DHT22;9708;53.114;9.388;2023-05-10T08:40:31;12.10;99.90
19152;DHT22;9708;53.114;9.388;2023-05-10T08:43:02;12.30;99.90
19152;DHT22;9708;53.114;9.388;2023-05-10T08:45:32;12.20;99.90
19152;DHT22;9708;53.114;9.388;2023-05-10T08:48:01;12.40;99.90
19152;DHT22;9708;53.114;9.388;2023-05-10T08:50:29;12.30;99.90
19152;DHT22;9708;53.114;9.388;2023-05-10T08:53:00;12.40;99.90
19152;DHT22;9708;53.114;9.388;2023-05-10T08:55:28;12.60;99.90
19152;DHT22;9708;53.114;9.388;2023-05-10T08:57:55;12.50;99.90
19152;DHT22;9708;53.114;9.388;2023-05-10T09:00:22;12.50;99.90
19152;DHT22;9708;53.114;9.388;2023-05-10T09:02:50;12.60;99.90
19152;DHT22;9708;53.114;9.388;2023-05-10T09:05:17;12.50;99.90
19152;DHT22;9708;53.114;9.388;2023-05-10T09:07:44;12.60;99.90
19152;DHT22;9708;53.114;9.388;2023-05-10T09:10:11;12.70;99.90
19152;DHT22;9708;53.114;9.388;2023-05-10T09:12:41;12.80;99.90
19152;DHT22;9708;53.114;9.388;2023-05-10T09:15:09;12.80;99.90
19152;DHT22;9708;53.114;9.388;2023-05-10T09:17:37;12.90;99.90
19152;DHT22;9708;53.114;9.388;2023-05-10T09:20:06;13.00;99.90
19152;DHT22;9708;53.114;9.388;2023-05-10T09:22:33;13.00;99.90
19152;DHT22;9708;53.114;9.388;2023-05-10T09:25:07;12.90;99.90
19152;DHT22;9708;53.114;9.388;2023-05-10T09:27:35;13.20;99.90
19152;DHT22;9708;53.114;9.388;2023-05-10T09:30:04;13.20;99.90
19152;DHT22;9708;53.114;9.388;2023-05-10T09:32:39;13.40;99.90
19152;DHT22;9708;53.114;9.388;2023-05-10T09:35:07;13.50;99.90
19152;DHT22;9708;53.114;9.388;2023-05-10T09:37:34;13.60;99.90
19152;DHT22;9708;53.114;9.388;2023-05-10T09:40:04;13.70;99.90
19152;DHT22;9708;53.114;9.388;2023-05-10T09:42:31;13.90;99.90
19152;DHT22;9708;53.114;9.388;2023-05-10T09:45:02;14.40;99.90
19152;DHT22;9708;53.114;9.388;2023-05-10T09:47:37;14.50;99.90
19152;DHT22;9708;53.114;9.388;2023-05-10T09:50:05;14.60;99.90
19152;DHT22;9708;53.114;9.388;2023-05-10T09:52:46;14.50;99.90
19152;DHT22;9708;53.114;9.388;2023-05-10T09:55:13;14.40;99.90
19152;DHT22;9708;53.114;9.388;2023-05-10T09:57:39;14.30;99.90
19152;DHT22;9708;53.114;9.388;2023-05-10T10:00:08;14.40;99.90
19152;DHT22;9708;53.114;9.388;2023-05-10T10:02:36;14.30;99.90
19152;DHT22;9708;53.114;9.388;2023-05-10T10:05:05;14.60;99.90
19152;DHT22;9708;53.114;9.388;2023-05-10T10:07:32;14.80;99.90
19152;DHT22;9708;53.114;9.388;2023-05-10T10:10:00;15.20;99.90
19152;DHT22;9708;53.114;9.388;2023-05-10T10:12:27;15.30;99.90
19152;DHT22;9708;53.114;9.388;2023-05-10T10:14:55;15.40;99.90
19152;DHT22;9708;53.114;9.388;2023-05-10T10:17:24;15.20;99.90
19152;DHT22;9708;53.114;9.388;2023-05-10T10:19:55;15.20;99.90
19152;DHT22;9708;53.114;9.388;2023-05-10T10:22:21;15.00;99.90
19152;DHT22;9708;53.114;9.388;2023-05-10T10:24:49;14.90;99.90
19152;DHT22;9708;53.114;9.388;2023-05-10T10:27:22;15.10;99.90
19152;DHT22;9708;53.114;9.388;2023-05-10T10:29:57;15.30;99.90
19152;DHT22;9708;53.114;9.388;2023-05-10T10:32:29;15.20;99.90
19152;DHT22;9708;53.114;9.388;2023-05-10T10:35:01;15.50;99.90
19152;DHT22;9708;53.114;9.388;2023-05-10T10:37:43;15.30;99.90
19152;DHT22;9708;53.114;9.388;2023-05-10T10:40:28;15.30;99.90
19152;DHT22;9708;53.114;9.388;2023-05-10T10:42:56;15.40;99.90
19152;DHT22;9708;53.114;9.388;2023-05-10T10:45:24;15.80;99.90
19152;DHT22;9708;53.114;9.388;2023-05-10T10:48:21;15.90;99.90
19152;DHT22;9708;53.114;9.388;2023-05-10T10:50:56;16.50;99.90
19152;DHT22;9708;53.114;9.388;2023-05-10T10:53:26;16.70;99.90
19152;DHT22;9708;53.114;9.388;2023-05-10T10:56:04;16.60;99.90
19152;DHT22;9708;53.114;9.388;2023-05-10T10:58:32;16.20;99.90
19152;DHT22;9708;53.114;9.388;2023-05-10T11:01:10;16.10;99.90
19152;DHT22;9708;53.114;9.388;2023-05-10T11:03:39;16.00;99.90
19152;DHT22;9708;53.114;9.388;2023-05-10T11:06:06;16.00;99.90
19152;DHT22;9708;53.114;9.388;2023-05-10T11:08:34;15.80;99.90
19152;DHT22;9708;53.114;9.388;2023-05-10T11:11:07;15.70;99.90
19152;DHT22;9708;53.114;9.388;2023-05-10T11:13:38;15.60;99.90
19152;DHT22;9708;53.114;9.388;2023-05-10T11:16:13;15.60;99.90
19152;DHT22;9708;53.114;9.388;2023-05-10T11:18:52;15.50;99.90
19152;DHT22;9708;53.114;9.388;2023-05-10T11:21:19;15.70;99.90
19152;DHT22;9708;53.114;9.388;2023-05-10T11:23:51;15.70;99.90
19152;DHT22;9708;53.114;9.388;2023-05-10T11:26:18;15.90;99.90
19152;DHT22;9708;53.114;9.388;2023-05-10T11:28:48;16.10;99.90
19152;DHT22;9708;53.114;9.388;2023-05-10T11:31:16;16.40;99.90
19152;DHT22;9708;53.114;9.388;2023-05-10T11:33:45;16.60;99.90
19152;DHT22;9708;53.114;9.388;2023-05-10T11:36:13;16.60;99.90
19152;DHT22;9708;53.114;9.388;2023-05-10T11:38:40;16.60;99.90
19152;DHT22;9708;53.114;9.388;2023-05-10T11:41:08;16.70;99.90
19152;DHT22;9708;53.114;9.388;2023-05-10T11:43:35;16.60;99.90
19152;DHT22;9708;53.114;9.388;2023-05-10T11:46:04;16.50;99.90
19152;DHT22;9708;53.114;9.388;2023-05-10T11:48:31;16.40;99.90
19152;DHT22;9708;53.114;9.388;2023-05-10T11:51:00;16.40;99.90
19152;DHT22;9708;53.114;9.388;2023-05-10T11:53:27;16.50;99.90
19152;DHT22;9708;53.114;9.388;2023-05-10T11:55:54;16.60;99.90
19152;DHT22;9708;53.114;9.388;2023-05-10T11:58:21;16.60;99.90
19152;DHT22;9708;53.114;9.388;2023-05-10T12:00:49;16.60;99.90
19152;DHT22;9708;53.114;9.388;2023-05-10T12:03:17;16.60;99.90
19152;DHT22;9708;53.114;9.388;2023-05-10T12:05:43;16.70;99.90
19152;DHT22;9708;53.114;9.388;2023-05-10T12:08:12;16.60;99.90
19152;DHT22;9708;53.114;9.388;2023-05-10T12:10:39;16.70;99.90
19152;DHT22;9708;53.114;9.388;2023-05-10T12:13:11;17.00;99.90
19152;DHT22;9708;53.114;9.388;2023-05-10T12:15:39;17.00;99.90
19152;DHT22;9708;53.114;9.388;2023-05-10T12:18:08;17.20;99.90
19152;DHT22;9708;53.114;9.388;2023-05-10T12:20:36;17.10;99.90
19152;DHT22;9708;53.114;9.388;2023-05-10T12:23:03;17.00;99.90
19152;DHT22;9708;53.114;9.388;2023-05-10T12:25:33;16.70;99.90
19152;DHT22;9708;53.114;9.388;2023-05-10T12:28:03;16.60;99.90
19152;DHT22;9708;53.114;9.388;2023-05-10T12:30:31;16.50;99.90
19152;DHT22;9708;53.114;9.388;2023-05-10T12:33:02;16.40;99.90
19152;DHT22;9708;53.114;9.388;2023-05-10T12:35:33;16.60;99.90
19152;DHT22;9708;53.114;9.388;2023-05-10T12:38:00;16.90;99.90
19152;DHT22;9708;53.114;9.388;2023-05-10T12:40:27;17.30;99.90
19152;DHT22;9708;53.114;9.388;2023-05-10T12:42:56;17.40;99.90
19152;DHT22;9708;53.114;9.388;2023-05-10T12:45:22;17.70;99.90
19152;DHT22;9708;53.114;9.388;2023-05-10T12:47:49;17.80;99.90
19152;DHT22;9708;53.114;9.388;2023-05-10T12:50:16;17.90;99.90
19152;DHT22;9708;53.114;9.388;2023-05-10T12:52:43;18.00;99.90
19152;DHT22;9708;53.114;9.388;2023-05-10T12:55:10;17.80;99.90
19152;DHT22;9708;53.114;9.388;2023-05-10T12:57:36;17.60;99.90
19152;DHT22;9708;53.114;9.388;2023-05-10T13:00:06;17.70;99.90
19152;DHT22;9708;53.114;9.388;2023-05-10T13:02:33;17.50;99.90
19152;DHT22;9708;53.114;9.388;2023-05-10T13:05:00;17.30;99.90
19152;DHT22;9708;53.114;9.388;2023-05-10T13:07:27;17.40;99.90
19152;DHT22;9708;53.114;9.388;2023-05-10T13:09:54;17.00;99.90
19152;DHT22;9708;53.114;9.388;2023-05-10T13:12:21;17.00;99.90
19152;DHT22;9708;53.114;9.388;2023-05-10T13:14:47;17.00;99.90
19152;DHT22;9708;53.114;9.388;2023-05-10T13:17:15;17.10;99.90
19152;DHT22;9708;53.114;9.388;2023-05-10T13:19:42;17.40;99.90
19152;DHT22;9708;53.114;9.388;2023-05-10T13:22:09;17.60;99.90
19152;DHT22;9708;53.114;9.388;2023-05-10T13:24:36;17.50;99.90
19152;DHT22;9708;53.114;9.388;2023-05-10T13:27:02;17.50;99.90
19152;DHT22;9708;53.114;9.388;2023-05-10T13:29:29;17.30;99.90
19152;DHT22;9708;53.114;9.388;2023-05-10T13:31:56;16.60;99.90
19152;DHT22;9708;53.114;9.388;2023-05-10T13:34:24;16.20;99.90
19152;DHT22;9708;53.114;9.388;2023-05-10T13:36:51;15.90;99.90
19152;DHT22;9708;53.114;9.388;2023-05-10T13:39:18;15.90;99.90
19152;DHT22;9708;53.114;9.388;2023-05-10T13:41:45;16.30;99.90
19152;DHT22;9708;53.114;9.388;2023-05-10T13:44:12;16.40;99.90
19152;DHT22;9708;53.114;9.388;2023-05-10T13:46:39;16.40;99.90
19152;DHT22;9708;53.114;9.388;2023-05-10T13:49:06;16.80;99.90
19152;DHT22;9708;53.114;9.388;2023-05-10T13:51:35;17.10;99.90
19152;DHT22;9708;53.114;9.388;2023-05-10T13:54:02;17.20;99.90
19152;DHT22;9708;53.114;9.388;2023-05-10T13:56:29;17.40;99.90
19152;DHT22;9708;53.114;9.388;2023-05-10T13:58:56;17.20;99.90
19152;DHT22;9708;53.114;9.388;2023-05-10T14:01:23;17.30;99.90
19152;DHT22;9708;53.114;9.388;2023-05-10T14:03:50;17.50;99.90
19152;DHT22;9708;53.114;9.388;2023-05-10T14:06:17;17.60;99.90
19152;DHT22;9708;53.114;9.388;2023-05-10T14:08:45;17.60;99.90
19152;DHT22;9708;53.114;9.388;2023-05-10T14:11:12;17.50;99.90
19152;DHT22;9708;53.114;9.388;2023-05-10T14:13:39;17.50;99.90
19152;DHT22;9708;53.114;9.388;2023-05-10T14:16:06;17.50;99.90
19152;DHT22;9708;53.114;9.388;2023-05-10T14:18:33;17.30;99.90
19152;DHT22;9708;53.114;9.388;2023-05-10T14:20:59;17.20;99.90
19152;DHT22;9708;53.114;9.388;2023-05-10T14:23:26;16.80;99.90
19152;DHT22;9708;53.114;9.388;2023-05-10T14:25:55;16.70;99.90
19152;DHT22;9708;53.114;9.388;2023-05-10T14:28:22;16.60;99.90
19152;DHT22;9708;53.114;9.388;2023-05-10T14:30:50;16.50;99.90
19152;DHT22;9708;53.114;9.388;2023-05-10T14:33:17;16.50;99.90
19152;DHT22;9708;53.114;9.388;2023-05-10T14:35:44;16.60;99.90
19152;DHT22;9708;53.114;9.388;2023-05-10T14:38:12;16.80;99.90
19152;DHT22;9708;53.114;9.388;2023-05-10T14:40:39;16.90;99.90
19152;DHT22;9708;53.114;9.388;2023-05-10T14:43:07;16.90;99.90
19152;DHT22;9708;53.114;9.388;2023-05-10T14:45:34;17.00;99.90
19152;DHT22;9708;53.114;9.388;2023-05-10T14:48:00;16.80;99.90
19152;DHT22;9708;53.114;9.388;2023-05-10T14:50:30;16.50;99.90
19152;DHT22;9708;53.114;9.388;2023-05-10T14:52:56;16.30;99.90
19152;DHT22;9708;53.114;9.388;2023-05-10T14:55:23;16.10;99.90
19152;DHT22;9708;53.114;9.388;2023-05-10T14:57:50;16.30;99.90
19152;DHT22;9708;53.114;9.388;2023-05-10T15:00:19;16.10;99.90
19152;DHT22;9708;53.114;9.388;2023-05-10T15:02:46;16.10;99.90
19152;DHT22;9708;53.114;9.388;2023-05-10T15:05:14;16.30;99.90
19152;DHT22;9708;53.114;9.388;2023-05-10T15:07:40;16.30;99.90
19152;DHT22;9708;53.114;9.388;2023-05-10T15:10:09;16.50;99.90
19152;DHT22;9708;53.114;9.388;2023-05-10T15:12:36;16.40;99.90
19152;DHT22;9708;53.114;9.388;2023-05-10T15:15:03;16.50;99.90
19152;DHT22;9708;53.114;9.388;2023-05-10T15:17:31;16.50;99.90
19152;DHT22;9708;53.114;9.388;2023-05-10T15:19:58;16.50;99.90
19152;DHT22;9708;53.114;9.388;2023-05-10T15:22:25;16.50;99.90
19152;DHT22;9708;53.114;9.388;2023-05-10T15:24:53;16.70;99.90
19152;DHT22;9708;53.114;9.388;2023-05-10T15:27:20;16.80;99.90
19152;DHT22;9708;53.114;9.388;2023-05-10T15:29:47;16.80;99.90
19152;DHT22;9708;53.114;9.388;2023-05-10T15:32:13;16.90;99.90
19152;DHT22;9708;53.114;9.388;2023-05-10T15:34:41;17.10;99.90
19152;DHT22;9708;53.114;9.388;2023-05-10T15:37:08;17.20;99.90
19152;DHT22;9708;53.114;9.388;2023-05-10T15:39:35;17.20;99.90
19152;DHT22;9708;53.114;9.388;2023-05-10T15:42:02;17.00;99.90
19152;DHT22;9708;53.114;9.388;2023-05-10T15:44:29;16.80;99.90
19152;DHT22;9708;53.114;9.388;2023-05-10T15:46:56;16.90;99.90
19152;DHT22;9708;53.114;9.388;2023-05-10T15:49:23;16.80;99.90
19152;DHT22;9708;53.114;9.388;2023-05-10T15:51:51;16.70;99.90